createdAt,value
2023-02-14T00:02:35.816Z,25.08
2023-02-14T00:05:21.666Z,24.77
2023-02-14T00:08:07.020Z,23.85
2023-02-14T00:10:52.514Z,21.75
2023-02-14T00:13:38.313Z,22.33
2023-02-14T00:16:23.931Z,23.98
2023-02-14T00:19:12.955Z,22.70
2023-02-14T00:21:58.452Z,24.42
2023-02-14T00:24:44.094Z,22.65
2023-02-14T00:27:29.818Z,21.92
2023-02-14T00:30:15.723Z,22.30
2023-02-14T00:33:01.118Z,23.33
2023-02-14T00:35:46.670Z,23.23
2023-02-14T00:38:34.347Z,22.95
2023-02-14T00:41:19.891Z,24.30
2023-02-14T00:44:05.803Z,22.88
2023-02-14T00:46:51.345Z,22.98
2023-02-14T00:49:36.763Z,23.20
2023-02-14T00:52:22.336Z,23.25
2023-02-14T00:55:07.962Z,22.63
2023-02-14T00:57:53.533Z,23.90
2023-02-14T01:00:39.701Z,24.30
2023-02-14T01:03:25.961Z,24.65
2023-02-14T01:06:11.732Z,23.60
2023-02-14T01:08:57.944Z,24.35
2023-02-14T01:11:43.488Z,22.42
2023-02-14T01:14:29.407Z,22.35
2023-02-14T01:17:15.052Z,22.55
2023-02-14T01:20:00.454Z,22.80
2023-02-14T01:22:46.172Z,23.38
2023-02-14T01:25:32.645Z,21.33
2023-02-14T01:28:18.390Z,22.23
2023-02-14T01:31:18.107Z,21.02
2023-02-14T01:34:04.034Z,21.80
2023-02-14T01:36:49.816Z,23.00
2023-02-14T01:39:35.281Z,21.25
2023-02-14T01:42:21.031Z,19.88
2023-02-14T01:45:19.687Z,19.48
2023-02-14T01:48:06.057Z,19.43
2023-02-14T01:50:53.799Z,19.70
2023-02-14T01:53:40.094Z,21.65
2023-02-14T01:56:35.541Z,19.40
2023-02-14T01:59:25.091Z,18.35
2023-02-14T02:02:11.240Z,19.02
2023-02-14T02:04:57.096Z,20.45
2023-02-14T02:07:44.741Z,20.10
2023-02-14T02:10:30.433Z,21.20
2023-02-14T02:13:18.592Z,22.15
2023-02-14T02:16:25.663Z,24.05
2023-02-14T02:19:36.172Z,23.02
2023-02-14T02:22:35.382Z,24.80
2023-02-14T02:25:36.521Z,22.95
2023-02-14T02:28:34.316Z,22.35
2023-02-14T02:31:31.692Z,20.27
2023-02-14T02:34:29.109Z,20.88
2023-02-14T02:37:32.831Z,20.77
2023-02-14T02:40:47.984Z,18.75
2023-02-14T02:44:03.651Z,19.00
2023-02-14T02:47:11.694Z,18.90
2023-02-14T02:50:25.401Z,19.13
2023-02-14T02:53:40.043Z,18.02
2023-02-14T02:56:47.211Z,19.60
2023-02-14T02:59:38.213Z,19.45
2023-02-14T03:02:32.923Z,19.25
2023-02-14T03:05:19.093Z,18.48
2023-02-14T03:08:05.844Z,17.88
2023-02-14T03:10:53.687Z,17.75
2023-02-14T03:13:40.050Z,18.25
2023-02-14T03:16:56.312Z,18.90
2023-02-14T03:20:11.622Z,17.98
2023-02-14T03:23:11.896Z,19.77
2023-02-14T03:26:09.629Z,19.80
2023-02-14T03:29:08.805Z,20.70
2023-02-14T03:32:04.061Z,19.90
2023-02-14T03:35:11.814Z,21.10
2023-02-14T03:38:16.343Z,18.67
2023-02-14T03:41:05.737Z,19.38
2023-02-14T03:47:09.818Z,18.45
2023-02-14T03:50:01.912Z,19.95
2023-02-14T03:52:52.158Z,19.88
2023-02-14T03:56:22.848Z,19.50
2023-02-14T03:59:25.176Z,20.83
2023-02-14T04:02:25.496Z,18.90
2023-02-14T04:05:19.369Z,19.75
2023-02-14T04:08:04.895Z,21.42
2023-02-14T04:10:52.453Z,21.13
2023-02-14T04:13:38.764Z,19.05
2023-02-14T04:16:24.597Z,21.20
2023-02-14T04:19:24.958Z,19.83
2023-02-14T04:22:10.470Z,20.02
2023-02-14T04:24:55.901Z,21.13
2023-02-14T04:27:41.877Z,19.25
2023-02-14T04:30:27.869Z,20.13
2023-02-14T04:33:13.227Z,19.17
2023-02-14T04:35:59.765Z,18.77
2023-02-14T04:38:45.201Z,19.20
2023-02-14T04:41:30.792Z,19.52
2023-02-14T04:44:16.245Z,19.38
2023-02-14T04:47:02.182Z,19.15
2023-02-14T04:49:47.685Z,19.60
2023-02-14T04:52:33.206Z,19.25
2023-02-14T04:55:19.150Z,18.83
2023-02-14T04:58:04.626Z,19.73
2023-02-14T05:00:50.152Z,18.95
2023-02-14T05:03:35.603Z,18.90
2023-02-14T05:06:21.059Z,18.50
2023-02-14T05:09:06.655Z,20.20
2023-02-14T05:11:52.081Z,19.17
2023-02-14T05:14:37.500Z,17.88
2023-02-14T05:17:23.650Z,20.33
2023-02-14T05:20:09.415Z,19.48
2023-02-14T05:22:55.118Z,21.70
2023-02-14T05:25:41.234Z,17.83
2023-02-14T05:28:27.026Z,19.48
2023-02-14T05:31:12.528Z,18.83
2023-02-14T05:33:58.016Z,18.90
2023-02-14T05:36:43.472Z,19.02
2023-02-14T05:39:29.166Z,18.63
2023-02-14T05:42:14.818Z,19.70
2023-02-14T05:45:00.616Z,19.63
2023-02-14T05:47:48.345Z,20.40
2023-02-14T05:50:34.027Z,20.35
2023-02-14T05:53:20.058Z,20.40
2023-02-14T05:56:06.162Z,20.10
2023-02-14T05:58:52.007Z,19.48
2023-02-14T06:01:37.424Z,18.88
2023-02-14T06:04:23.134Z,18.75
2023-02-14T06:07:08.666Z,18.77
2023-02-14T06:09:54.109Z,22.27
2023-02-14T06:12:39.653Z,19.45
2023-02-14T06:15:25.529Z,20.65
2023-02-14T06:18:11.328Z,19.05
2023-02-14T06:20:57.436Z,20.42
2023-02-14T06:23:43.315Z,19.25
2023-02-14T06:26:28.961Z,18.00
2023-02-14T06:29:16.827Z,19.55
2023-02-14T06:32:05.932Z,18.40
2023-02-14T06:34:52.194Z,19.02
2023-02-14T06:37:38.857Z,18.40
2023-02-14T06:40:24.392Z,17.63
2023-02-14T06:43:10.071Z,18.42
2023-02-14T06:45:55.973Z,19.05
2023-02-14T06:48:41.729Z,20.10
2023-02-14T06:51:27.298Z,18.20
2023-02-14T06:54:14.494Z,18.20
2023-02-14T06:57:00.387Z,19.73
2023-02-14T06:59:46.162Z,18.38
2023-02-14T07:02:31.936Z,18.30
2023-02-14T07:05:19.050Z,19.60
2023-02-14T07:08:07.171Z,17.77
2023-02-14T07:10:57.185Z,18.27
2023-02-14T07:13:43.884Z,18.73
2023-02-14T07:16:29.907Z,18.02
2023-02-14T07:19:16.013Z,18.13
2023-02-14T07:22:01.745Z,19.25
2023-02-14T07:24:47.238Z,17.80
2023-02-14T07:27:33.381Z,18.63
2023-02-14T07:30:19.091Z,22.70
2023-02-14T07:33:04.797Z,21.30
2023-02-14T07:35:50.406Z,19.38
2023-02-14T07:38:36.511Z,19.67
2023-02-14T07:41:22.726Z,22.13
2023-02-14T07:44:08.409Z,19.20
2023-02-14T07:46:54.079Z,20.52
2023-02-14T07:49:39.352Z,19.52
2023-02-14T07:52:24.829Z,21.00
2023-02-14T07:55:10.836Z,18.55
2023-02-14T07:57:56.392Z,19.25
2023-02-14T08:00:42.034Z,18.60
2023-02-14T08:03:27.466Z,20.85
2023-02-14T08:06:12.870Z,19.83
2023-02-14T08:08:58.619Z,19.75
2023-02-14T08:12:02.577Z,19.67
2023-02-14T08:14:48.410Z,19.10
2023-02-14T08:17:35.795Z,22.40
2023-02-14T08:20:22.013Z,21.85
2023-02-14T08:23:07.593Z,20.75
2023-02-14T08:25:53.747Z,20.13
2023-02-14T08:28:38.955Z,18.15
2023-02-14T08:31:35.606Z,18.38
2023-02-14T08:34:21.542Z,19.58
2023-02-14T08:37:07.321Z,16.95
2023-02-14T08:39:52.830Z,19.77
2023-02-14T08:42:38.505Z,19.38
2023-02-14T08:45:23.992Z,18.63
2023-02-14T08:48:12.256Z,17.85
2023-02-14T08:50:58.279Z,16.70
2023-02-14T08:53:44.737Z,18.42
2023-02-14T08:56:30.231Z,19.15
2023-02-14T08:59:15.919Z,17.85
2023-02-14T09:02:01.367Z,20.27
2023-02-14T09:04:46.805Z,17.65
2023-02-14T09:07:32.289Z,21.00
2023-02-14T09:10:18.602Z,18.25
2023-02-14T09:13:03.977Z,18.27
2023-02-14T09:15:50.317Z,19.67
2023-02-14T09:18:36.214Z,22.48
2023-02-14T09:21:26.285Z,21.75
2023-02-14T09:24:11.924Z,21.58
2023-02-14T09:26:58.264Z,20.95
2023-02-14T09:29:43.868Z,20.80
2023-02-14T09:32:29.868Z,21.83
2023-02-14T09:35:34.845Z,21.30
2023-02-14T09:38:20.888Z,21.58
2023-02-14T09:41:08.971Z,21.58
2023-02-14T09:44:07.828Z,20.08
2023-02-14T09:46:57.477Z,20.03
2023-02-14T09:49:43.952Z,21.15
2023-02-14T09:52:31.313Z,19.67
2023-02-14T09:55:18.039Z,19.05
2023-02-14T09:58:23.136Z,19.85
2023-02-14T10:01:22.431Z,18.02
2023-02-14T10:04:39.794Z,18.00
2023-02-14T10:07:46.481Z,18.63
2023-02-14T10:10:39.880Z,22.10
2023-02-14T10:13:49.273Z,19.08
2023-02-14T10:16:48.567Z,18.98
2023-02-14T10:19:57.327Z,18.92
2023-02-14T10:22:50.118Z,22.13
2023-02-14T10:25:54.357Z,21.75
2023-02-14T10:28:51.354Z,19.83
2023-02-14T10:31:55.747Z,23.30
2023-02-14T10:34:50.078Z,22.90
2023-02-14T10:38:07.711Z,21.27
2023-02-14T10:41:34.061Z,21.75
2023-02-14T10:44:28.221Z,21.27
2023-02-14T10:47:43.290Z,23.45
2023-02-14T10:50:52.671Z,24.27
2023-02-14T10:54:04.466Z,25.05
2023-02-14T10:57:00.581Z,22.90
2023-02-14T11:00:01.210Z,25.05
2023-02-14T11:02:57.976Z,24.95
2023-02-14T11:05:48.870Z,23.63
2023-02-14T11:08:41.081Z,25.48
2023-02-14T11:11:29.511Z,23.88
2023-02-14T11:17:31.678Z,25.70
2023-02-14T11:20:30.388Z,27.98
2023-02-14T11:23:21.191Z,26.30
2023-02-14T11:26:14.313Z,26.17
2023-02-14T11:29:03.742Z,26.23
2023-02-14T11:31:49.848Z,26.73
2023-02-14T11:35:07.137Z,27.42
2023-02-14T11:37:56.188Z,26.90
2023-02-14T11:40:42.320Z,26.13
2023-02-14T11:43:32.527Z,23.67
2023-02-14T11:46:21.164Z,26.13
2023-02-14T11:49:28.719Z,30.13
2023-02-14T11:52:17.344Z,31.65
2023-02-14T11:55:02.960Z,31.15
2023-02-14T11:57:48.362Z,28.35
2023-02-14T12:00:35.141Z,29.95
2023-02-14T12:03:21.081Z,28.75
2023-02-14T12:06:06.914Z,28.48
2023-02-14T12:09:06.783Z,27.13
2023-02-14T12:11:59.787Z,27.45
2023-02-14T12:14:45.897Z,27.20
2023-02-14T12:17:37.552Z,28.65
2023-02-14T12:20:36.064Z,27.63
2023-02-14T12:23:37.067Z,26.88
2023-02-14T12:26:51.031Z,28.02
2023-02-14T12:29:46.092Z,29.40
2023-02-14T12:32:32.546Z,27.73
2023-02-14T12:35:36.490Z,30.02
2023-02-14T12:38:24.893Z,30.58
2023-02-14T12:41:10.406Z,28.55
2023-02-14T12:44:14.975Z,28.17
2023-02-14T12:47:53.343Z,30.70
2023-02-14T12:50:56.619Z,29.33
2023-02-14T12:53:51.285Z,28.50
2023-02-14T12:57:01.669Z,29.55
2023-02-14T13:00:12.534Z,27.42
2023-02-14T13:03:23.347Z,28.85
2023-02-14T13:06:21.325Z,27.15
2023-02-14T13:09:19.224Z,26.42
2023-02-14T13:12:26.753Z,27.45
2023-02-14T13:15:24.494Z,26.58
2023-02-14T13:18:22.166Z,28.50
2023-02-14T13:21:11.851Z,27.98
2023-02-14T13:24:18.309Z,26.60
2023-02-14T13:27:08.634Z,26.70
2023-02-14T13:29:59.681Z,25.38
2023-02-14T13:32:48.439Z,29.00
2023-02-14T13:35:35.022Z,29.47
2023-02-14T13:38:21.304Z,28.00
2023-02-14T13:41:08.486Z,28.20
2023-02-14T13:43:56.998Z,29.67
2023-02-14T13:46:50.090Z,31.02
2023-02-14T13:49:45.318Z,29.33
2023-02-14T13:52:43.140Z,30.33
2023-02-14T13:55:44.443Z,28.15
2023-02-14T13:58:30.893Z,28.52
2023-02-14T14:01:35.993Z,29.67
2023-02-14T14:04:33.456Z,30.42
2023-02-14T14:07:24.359Z,30.85
2023-02-14T14:10:11.765Z,28.33
2023-02-14T14:12:58.010Z,29.00
2023-02-14T14:16:18.771Z,29.45
2023-02-14T14:19:07.497Z,29.90
2023-02-14T14:22:11.986Z,30.13
2023-02-14T14:24:58.311Z,30.08
2023-02-14T14:27:47.507Z,31.50
2023-02-14T14:30:33.554Z,30.90
2023-02-14T14:33:33.955Z,30.48
2023-02-14T14:39:10.482Z,33.50
2023-02-14T14:42:06.914Z,32.05
2023-02-14T14:44:56.824Z,34.80
2023-02-14T14:47:45.322Z,34.70
2023-02-14T14:50:35.270Z,34.58
2023-02-14T14:53:51.542Z,35.85
2023-02-14T14:56:50.894Z,35.92
2023-02-14T14:59:40.260Z,35.42
2023-02-14T15:02:27.334Z,36.30
2023-02-14T15:05:29.617Z,37.58
2023-02-14T15:08:33.701Z,38.70
2023-02-14T15:11:42.748Z,37.78
2023-02-14T15:14:30.573Z,40.30
2023-02-14T15:17:21.140Z,39.05
2023-02-14T15:20:16.313Z,38.53
2023-02-14T15:23:03.008Z,38.58
2023-02-14T15:25:49.654Z,42.28
2023-02-14T15:28:36.893Z,40.50
2023-02-14T15:31:23.266Z,40.17
2023-02-14T15:34:11.567Z,40.25
2023-02-14T15:37:03.605Z,39.17
2023-02-14T15:39:58.054Z,40.85
2023-02-14T15:42:45.167Z,41.95
2023-02-14T15:45:31.145Z,41.55
2023-02-14T15:48:22.285Z,41.35
2023-02-14T15:51:17.500Z,40.03
2023-02-14T15:54:19.996Z,39.42
2023-02-14T15:57:07.788Z,37.92
2023-02-14T15:59:54.059Z,40.63
2023-02-14T16:02:41.323Z,37.53
2023-02-14T16:05:27.461Z,37.80
2023-02-14T16:08:26.585Z,36.97
2023-02-14T16:11:15.883Z,36.92
2023-02-14T16:14:35.333Z,39.28
2023-02-14T16:17:33.521Z,36.72
2023-02-14T16:20:41.456Z,38.38
2023-02-14T16:23:29.101Z,39.42
2023-02-14T16:26:14.948Z,37.92
2023-02-14T16:29:04.897Z,35.50
2023-02-14T16:35:00.604Z,43.03
2023-02-14T16:37:47.911Z,41.78
2023-02-14T16:40:33.531Z,39.15
2023-02-14T16:43:20.555Z,42.60
2023-02-14T16:46:06.167Z,42.65
2023-02-14T16:48:52.617Z,38.75
2023-02-14T16:51:42.712Z,37.80
2023-02-14T16:57:19.105Z,35.30
2023-02-14T17:00:06.556Z,39.10
2023-02-14T17:02:52.185Z,38.42
2023-02-14T17:05:38.926Z,38.28
2023-02-14T17:08:25.624Z,38.03
2023-02-14T17:11:11.278Z,34.88
2023-02-14T17:13:57.283Z,35.70
2023-02-14T17:16:43.360Z,35.58
2023-02-14T17:19:29.227Z,36.80
2023-02-14T17:22:15.086Z,34.05
2023-02-14T17:25:00.877Z,34.10
2023-02-14T17:27:46.528Z,34.95
2023-02-14T17:30:32.085Z,33.22
2023-02-14T17:33:17.612Z,33.45
2023-02-14T17:36:09.104Z,31.85
2023-02-14T17:38:55.587Z,33.20
2023-02-14T17:41:41.057Z,32.45
2023-02-14T17:44:26.677Z,31.33
2023-02-14T17:47:14.705Z,32.70
2023-02-14T17:50:00.245Z,32.13
2023-02-14T17:52:46.291Z,33.80
2023-02-14T17:55:31.939Z,31.65
2023-02-14T17:58:17.670Z,32.17
2023-02-14T18:01:09.603Z,30.80
2023-02-14T18:03:55.186Z,29.42
2023-02-14T18:06:42.499Z,32.58
2023-02-14T18:09:29.956Z,31.58
2023-02-14T18:12:15.652Z,35.45
2023-02-14T18:15:01.237Z,35.85
2023-02-14T18:17:50.592Z,34.83
2023-02-14T18:20:36.178Z,32.58
2023-02-14T18:23:22.513Z,31.83
2023-02-14T18:26:11.998Z,31.67
2023-02-14T18:28:58.481Z,31.45
2023-02-14T18:31:44.528Z,32.90
2023-02-14T18:34:30.586Z,31.98
2023-02-14T18:37:16.110Z,32.78
2023-02-14T18:40:01.786Z,32.97
2023-02-14T18:42:47.261Z,34.75
2023-02-14T18:45:37.905Z,33.08
2023-02-14T18:48:23.330Z,33.13
2023-02-14T18:51:22.001Z,34.20
2023-02-14T18:54:07.863Z,34.75
2023-02-14T18:56:53.649Z,33.85
2023-02-14T18:59:39.327Z,31.65
2023-02-14T19:02:24.962Z,31.42
2023-02-14T19:05:10.894Z,30.67
2023-02-14T19:07:58.207Z,32.28
2023-02-14T19:10:44.080Z,31.30
2023-02-14T19:13:32.131Z,30.42
2023-02-14T19:16:21.694Z,30.85
2023-02-14T19:19:07.476Z,30.65
2023-02-14T19:21:53.440Z,28.90
2023-02-14T19:24:39.070Z,31.60
2023-02-14T19:27:24.621Z,31.88
2023-02-14T19:30:10.745Z,31.80
2023-02-14T19:32:56.441Z,31.90
2023-02-14T19:35:42.049Z,31.40
2023-02-14T19:38:28.073Z,33.33
2023-02-14T19:41:24.634Z,34.42
2023-02-14T19:44:13.789Z,31.17
2023-02-14T19:47:01.896Z,35.55
2023-02-14T19:49:49.793Z,35.95
2023-02-14T19:52:35.173Z,31.52
2023-02-14T19:55:22.733Z,31.27
2023-02-14T19:58:08.347Z,30.75
2023-02-14T20:00:59.058Z,30.88
2023-02-14T20:03:45.362Z,29.95
2023-02-14T20:06:30.880Z,27.92
2023-02-14T20:09:17.704Z,29.08
2023-02-14T20:12:04.076Z,28.10
2023-02-14T20:14:52.191Z,25.77
2023-02-14T20:17:37.694Z,24.20
2023-02-14T20:20:23.744Z,24.08
2023-02-14T20:23:09.298Z,26.23
2023-02-14T20:25:54.909Z,26.30
2023-02-14T20:28:40.896Z,27.60
2023-02-14T20:31:26.651Z,28.30
2023-02-14T20:34:13.213Z,28.08
2023-02-14T20:37:00.171Z,25.65
2023-02-14T20:39:46.423Z,34.55
2023-02-14T20:42:31.728Z,26.15
2023-02-14T20:45:17.462Z,26.85
2023-02-14T20:48:04.351Z,26.08
2023-02-14T20:50:49.671Z,26.25
2023-02-14T20:53:35.235Z,24.55
2023-02-14T20:56:23.618Z,25.02
2023-02-14T20:59:13.215Z,25.83
2023-02-14T21:01:59.476Z,25.85
2023-02-14T21:04:45.735Z,25.48
2023-02-14T21:07:31.553Z,25.52
2023-02-14T21:10:17.209Z,24.67
2023-02-14T21:13:02.994Z,25.52
2023-02-14T21:15:48.515Z,24.73
2023-02-14T21:18:35.030Z,24.02
2023-02-14T21:21:29.854Z,25.75
2023-02-14T21:24:16.420Z,25.58
2023-02-14T21:27:02.267Z,31.83
2023-02-14T21:29:48.137Z,28.25
2023-02-14T21:32:33.675Z,25.77
2023-02-14T21:35:19.757Z,29.13
2023-02-14T21:38:05.647Z,26.27
2023-02-14T21:41:04.874Z,27.02
2023-02-14T21:43:53.122Z,24.55
2023-02-14T21:46:41.033Z,25.15
2023-02-14T21:49:45.433Z,23.95
2023-02-14T21:52:30.949Z,23.38
2023-02-14T21:55:16.793Z,24.40
2023-02-14T21:58:02.882Z,23.15
2023-02-14T22:00:48.694Z,21.25
2023-02-14T22:03:34.675Z,23.98
2023-02-14T22:06:21.689Z,22.30
2023-02-14T22:09:08.153Z,23.73
2023-02-14T22:11:53.891Z,21.65
2023-02-14T22:14:39.376Z,22.23
2023-02-14T22:17:24.916Z,20.92
2023-02-14T22:20:10.875Z,20.60
2023-02-14T22:22:56.229Z,22.30
2023-02-14T22:25:41.698Z,25.02
2023-02-14T22:28:27.016Z,26.77
2023-02-14T22:31:13.202Z,23.77
2023-02-14T22:33:58.704Z,23.25
2023-02-14T22:36:44.402Z,24.02
2023-02-14T22:39:29.940Z,23.80
2023-02-14T22:42:15.626Z,23.13
2023-02-14T22:45:01.440Z,22.95
2023-02-14T22:47:47.144Z,22.95
2023-02-14T22:50:35.450Z,22.73
2023-02-14T22:53:21.255Z,23.85
2023-02-14T22:56:15.532Z,22.30
2023-02-14T22:59:04.849Z,21.58
2023-02-14T23:01:52.491Z,23.88
2023-02-14T23:04:38.149Z,21.25
2023-02-14T23:07:24.914Z,22.17
2023-02-14T23:10:10.884Z,22.85
2023-02-14T23:13:14.897Z,20.23
2023-02-14T23:16:35.621Z,20.13
2023-02-14T23:19:43.591Z,22.55
2023-02-14T23:22:37.671Z,21.10
2023-02-14T23:25:23.354Z,23.85
2023-02-14T23:28:09.172Z,22.63
2023-02-14T23:30:54.991Z,21.52
2023-02-14T23:33:40.543Z,23.67
2023-02-14T23:36:26.136Z,21.77
2023-02-14T23:39:12.438Z,21.30
2023-02-14T23:41:58.492Z,21.52
2023-02-14T23:44:45.026Z,20.02
2023-02-14T23:47:31.611Z,21.05
2023-02-14T23:50:18.505Z,20.63
2023-02-14T23:53:04.161Z,20.70
2023-02-14T23:55:49.572Z,21.98
2023-02-14T23:58:34.919Z,22.02
